Time;durP1;ratioP1;P1;durP2;ratioP2;P2;SDS_P1;SDS_P2;PMS_P1;PMS_P2;Temp;Humidity;BMP_temperature;BMP_pressure;BME280_temperature;BME280_humidity;BME280_pressure;Samples;Min_cycle;Max_cycle;Signal;HPM_P1;HPM_P2
2022/08/23 00:01:56;;;;;;;20.85;3.77;;;;;;;20.96;55.38;99331.17;1776972;80;21088;-75
2022/08/23 00:04:29;;;;;;;20.75;3.45;;;;;;;20.92;55.36;99329.73;1776474;80;21091;-75
2022/08/23 00:06:57;;;;;;;27.52;4.12;;;;;;;20.91;55.43;99336.04;1776902;80;21182;-75
2022/08/23 00:09:24;;;;;;;15.72;3.70;;;;;;;20.89;55.25;99331.31;1776459;80;21037;-75
2022/08/23 00:12:11;;;;;;;25.37;3.90;;;;;;;20.89;55.19;99336.66;1777068;80;20987;-75
2022/08/23 00:14:41;;;;;;;23.40;3.58;;;;;;;20.89;55.22;99335.33;1775590;80;20986;-75
2022/08/23 00:17:10;;;;;;;13.15;3.10;;;;;;;20.87;55.18;99343.47;1776604;80;21154;-75
2022/08/23 00:19:38;;;;;;;16.50;4.12;;;;;;;20.87;55.13;99346.64;1776588;80;21819;-75
2022/08/23 00:22:05;;;;;;;16.37;3.58;;;;;;;20.85;55.00;99340.08;1776420;80;21052;-74
2022/08/23 00:24:33;;;;;;;25.32;3.60;;;;;;;20.86;55.00;99342.25;1776825;80;21061;-75
2022/08/23 00:27:10;;;;;;;17.85;3.37;;;;;;;20.84;54.92;99346.37;1776606;80;21052;-75
2022/08/23 00:29:51;;;;;;;18.35;4.33;;;;;;;20.84;54.95;99342.87;1782783;79;21052;-74
2022/08/23 00:32:24;;;;;;;14.60;3.60;;;;;;;20.82;54.95;99348.33;1784408;80;21221;-75
2022/08/23 00:34:51;;;;;;;20.85;3.33;;;;;;;20.80;54.91;99346.77;1784465;80;21063;-74
2022/08/23 00:37:19;;;;;;;18.48;3.45;;;;;;;20.78;54.81;99346.39;1784416;80;21306;-76
2022/08/23 00:39:45;;;;;;;16.95;3.05;;;;;;;20.77;54.62;99346.02;1784638;80;21044;-75
2022/08/23 00:47:56;;;;;;;16.02;3.58;;;;;;;20.73;54.73;99356.61;1751261;80;21094;-75
2022/08/23 00:50:55;;;;;;;22.15;3.42;;;;;;;20.72;54.78;99350.89;1739982;82;21079;-75
2022/08/23 00:53:30;;;;;;;16.90;3.17;;;;;;;20.71;54.61;99360.36;1740077;82;21057;-75
2022/08/23 00:56:04;;;;;;;19.05;3.67;;;;;;;20.70;54.49;99356.00;1740086;82;21112;-75
2022/08/23 00:58:31;;;;;;;14.10;3.77;;;;;;;20.69;54.41;99356.47;1740530;82;21162;-75
2022/08/23 01:00:59;;;;;;;13.18;3.20;;;;;;;20.68;54.48;99357.46;1740187;82;21099;-75
2022/08/23 01:03:27;;;;;;;20.25;3.55;;;;;;;20.66;54.44;99356.73;1740070;82;21034;-75
2022/08/23 01:06:15;;;;;;;13.78;2.62;;;;;;;20.64;54.44;99364.00;1740155;82;21072;-75
2022/08/23 01:08:48;;;;;;;12.50;2.90;;;;;;;20.63;54.37;99358.31;1739824;82;21072;-75
2022/08/23 01:11:20;;;;;;;17.42;3.02;;;;;;;20.62;54.18;99361.91;1740112;82;21231;-75
2022/08/23 01:13:56;;;;;;;16.95;2.83;;;;;;;20.62;54.08;99365.08;1739913;82;20911;-75
2022/08/23 01:16:30;;;;;;;9.73;3.12;;;;;;;20.61;53.93;99365.58;1740299;82;21559;-75
2022/08/23 01:18:57;;;;;;;11.63;3.33;;;;;;;20.60;53.87;99357.19;1738802;82;21001;-75
2022/08/23 01:21:31;;;;;;;10.63;3.52;;;;;;;20.60;53.81;99355.84;1740190;82;21021;-75
2022/08/23 01:24:00;;;;;;;15.38;2.70;;;;;;;20.59;53.71;99359.48;1740134;82;21576;-75
2022/08/23 01:26:27;;;;;;;15.50;3.02;;;;;;;20.59;53.90;99363.48;1740338;82;21041;-75
2022/08/23 01:28:55;;;;;;;18.40;3.35;;;;;;;20.56;53.91;99363.72;1737913;81;21391;-75
2022/08/23 01:31:22;;;;;;;13.65;3.55;;;;;;;20.55;53.91;99364.72;1735011;82;21042;-75
2022/08/23 01:33:58;;;;;;;18.10;2.67;;;;;;;20.54;53.70;99357.66;1735064;82;21592;-74
2022/08/23 01:36:25;;;;;;;13.53;2.83;;;;;;;20.54;53.51;99363.00;1734632;82;21125;-75
2022/08/23 01:38:52;;;;;;;12.03;2.62;;;;;;;20.52;53.54;99368.95;1734797;82;20997;-75
2022/08/23 01:41:19;;;;;;;19.37;3.02;;;;;;;20.51;53.45;99373.92;1734647;82;21013;-75
2022/08/23 01:43:45;;;;;;;13.28;3.00;;;;;;;20.50;53.45;99373.58;1734754;82;21461;-75
2022/08/23 01:46:18;;;;;;;12.28;2.85;;;;;;;20.49;53.54;99381.22;1734908;82;21046;-75
2022/08/23 01:48:46;;;;;;;15.32;2.92;;;;;;;20.49;53.46;99383.89;1734889;82;21902;-75
2022/08/23 01:51:15;;;;;;;13.25;3.15;;;;;;;20.48;53.46;99381.72;1750937;80;21001;-75
2022/08/23 01:53:43;;;;;;;18.37;3.30;;;;;;;20.46;53.23;99380.98;1766154;81;21032;-75
2022/08/23 01:56:09;;;;;;;17.00;2.80;;;;;;;20.45;53.26;99377.09;1766056;81;21539;-75
2022/08/23 01:58:37;;;;;;;11.05;2.40;;;;;;;20.45;53.33;99378.44;1765886;81;21127;-75
2022/08/23 02:01:04;;;;;;;17.80;3.12;;;;;;;20.43;53.22;99379.05;1810176;79;21466;-75
2022/08/23 02:03:33;;;;;;;11.40;2.90;;;;;;;20.42;53.09;99379.51;1809569;79;21045;-75
2022/08/23 02:05:59;;;;;;;10.30;2.70;;;;;;;20.42;53.12;99378.17;1809813;79;21584;-75
2022/08/23 02:11:15;;;;;;;21.82;2.98;;;;;;;20.40;52.99;99374.78;1801857;79;21525;-75
2022/08/23 02:13:45;;;;;;;14.13;3.00;;;;;;;20.38;52.97;99378.91;1809760;79;21134;-75
2022/08/23 02:16:13;;;;;;;21.90;3.27;;;;;;;20.39;52.90;99380.61;1810113;79;21055;-75
2022/08/23 02:18:40;;;;;;;15.48;2.83;;;;;;;20.39;52.87;99381.08;1809680;79;21090;-75
2022/08/23 02:21:06;;;;;;;13.38;3.12;;;;;;;20.37;52.89;99383.87;1809633;79;21046;-75
2022/08/23 02:23:33;;;;;;;13.40;3.20;;;;;;;20.36;52.78;99380.84;1775283;79;21574;-76
2022/08/23 02:26:01;;;;;;;18.40;3.12;;;;;;;20.36;52.69;99378.17;1809718;78;21078;-75
2022/08/23 02:28:30;;;;;;;12.10;2.87;;;;;;;20.35;52.72;99377.80;1810603;78;21078;-75
2022/08/23 02:30:57;;;;;;;15.85;3.20;;;;;;;20.34;52.64;99378.79;1769758;81;21474;-75
2022/08/23 02:33:23;;;;;;;17.45;3.17;;;;;;;20.32;52.72;99383.37;1821668;78;20991;-75
2022/08/23 02:35:50;;;;;;;13.90;2.98;;;;;;;20.32;52.64;99383.87;1769917;81;21069;-75
2022/08/23 02:38:17;;;;;;;20.08;3.60;;;;;;;20.30;52.61;99376.46;1821144;78;21806;-75
2022/08/23 02:40:43;;;;;;;12.20;2.65;;;;;;;20.26;52.47;99383.87;1769765;81;21073;-75
2022/08/23 02:43:11;;;;;;;12.55;2.90;;;;;;;20.25;52.52;99382.16;1821376;78;21045;-75
2022/08/23 02:45:38;;;;;;;21.37;3.22;;;;;;;20.23;52.45;99389.44;1821593;78;21061;-75
2022/08/23 02:48:05;;;;;;;22.25;2.90;;;;;;;20.22;52.42;99391.27;1821626;78;21085;-75
2022/08/23 02:50:34;;;;;;;13.08;2.47;;;;;;;20.22;52.25;99391.27;1801755;78;21503;-76
2022/08/23 02:53:03;;;;;;;23.38;4.10;;;;;;;20.21;52.07;99395.39;1727615;82;21086;-75
2022/08/23 02:55:30;;;;;;;14.15;3.67;;;;;;;20.20;52.15;99397.69;1776740;80;21060;-74
2022/08/23 02:57:57;;;;;;;17.57;2.83;;;;;;;20.19;52.11;99395.51;1776938;80;22297;-75
2022/08/23 03:00:24;;;;;;;17.10;3.47;;;;;;;20.17;52.13;99398.79;1777044;80;21473;-76
2022/08/23 03:02:51;;;;;;;11.55;2.90;;;;;;;20.17;51.98;99399.25;1776777;80;21230;-75
2022/08/23 03:05:17;;;;;;;20.32;3.10;;;;;;;20.16;51.86;99406.91;1777129;80;21193;-75
2022/08/23 03:07:46;;;;;;;18.90;3.10;;;;;;;20.15;51.72;99408.72;1776974;80;21076;-75
2022/08/23 03:10:13;;;;;;;22.50;3.15;;;;;;;20.16;51.68;99412.26;1776909;80;21032;-76
2022/08/23 03:12:41;;;;;;;13.78;2.47;;;;;;;20.16;51.64;99412.26;1776621;80;21092;-75
2022/08/23 03:15:10;;;;;;;18.50;3.25;;;;;;;20.16;51.54;99410.42;1776955;80;21102;-75
2022/08/23 03:17:37;;;;;;;18.95;2.85;;;;;;;20.17;51.42;99412.61;1777040;80;21060;-75
2022/08/23 03:20:07;;;;;;;21.45;3.45;;;;;;;20.16;51.27;99422.45;1748796;80;21025;-75
2022/08/23 03:22:34;;;;;;;16.97;3.40;;;;;;;20.17;51.17;99422.83;1776708;80;21634;-75
2022/08/23 03:25:00;;;;;;;18.85;2.75;;;;;;;20.18;51.19;99417.00;1776999;80;21528;-75
2022/08/23 03:27:30;;;;;;;18.82;2.85;;;;;;;20.18;51.19;99421.00;1775843;80;22155;-75
2022/08/23 03:29:57;;;;;;;20.70;2.90;;;;;;;20.18;51.13;99421.84;1767578;80;21532;-75
2022/08/23 03:32:25;;;;;;;12.25;2.42;;;;;;;20.20;51.09;99419.90;1760468;81;21096;-75
2022/08/23 03:34:53;;;;;;;10.85;2.72;;;;;;;20.21;51.11;99424.28;1760507;81;21498;-75
2022/08/23 03:37:19;;;;;;;13.85;2.75;;;;;;;20.23;50.95;99416.16;1760416;81;21537;-75
2022/08/23 03:39:46;;;;;;;15.13;2.37;;;;;;;20.23;50.99;99424.17;1760167;81;21567;-75
2022/08/23 03:42:13;;;;;;;17.37;3.00;;;;;;;20.23;50.95;99426.84;1760238;80;21164;-75
2022/08/23 03:44:41;;;;;;;19.23;2.75;;;;;;;20.23;51.06;99427.69;1760667;81;21049;-75
2022/08/23 03:47:07;;;;;;;21.80;2.87;;;;;;;20.23;50.96;99427.69;1760536;81;21077;-76
2022/08/23 03:49:34;;;;;;;14.85;2.58;;;;;;;20.25;51.05;99431.58;1760547;81;21066;-76
2022/08/23 03:52:01;;;;;;;21.17;3.52;;;;;;;20.28;51.20;99439.86;1783309;79;21189;-75
2022/08/23 03:54:30;;;;;;;12.00;3.02;;;;;;;20.28;51.16;99443.38;1780433;80;21098;-75
2022/08/23 03:56:59;;;;;;;18.48;2.90;;;;;;;20.30;50.99;99445.93;1780765;80;21101;-75
2022/08/23 03:59:28;;;;;;;18.12;3.27;;;;;;;20.32;50.96;99452.84;1780807;80;21023;-76
2022/08/23 04:01:54;;;;;;;18.62;4.15;;;;;;;20.35;50.97;99452.61;1780894;80;20976;-76
2022/08/23 04:04:21;;;;;;;20.57;2.70;;;;;;;20.37;50.91;99457.35;1780987;80;21212;-75
2022/08/23 04:07:06;;;;;;;22.85;4.00;;;;;;;20.39;50.88;99458.11;1780587;80;21058;-76
2022/08/23 04:09:33;;;;;;;15.18;2.80;;;;;;;20.41;50.83;99462.84;1780602;80;20996;-75
2022/08/23 04:12:00;;;;;;;23.62;3.25;;;;;;;20.44;50.77;99460.90;1780520;80;21039;-75
2022/08/23 04:14:27;;;;;;;17.17;3.60;;;;;;;20.45;51.02;99461.28;1780669;80;21074;-75
2022/08/23 04:16:54;;;;;;;40.03;3.12;;;;;;;20.48;51.11;99463.72;1781179;80;21238;-75
2022/08/23 04:19:22;;;;;;;14.33;2.90;;;;;;;20.49;50.67;99461.40;1780796;80;21019;-76
2022/08/23 04:21:50;;;;;;;17.10;3.47;;;;;;;20.51;50.65;99464.80;1778974;80;21090;-75
2022/08/23 04:24:17;;;;;;;16.90;3.17;;;;;;;20.53;50.54;99460.21;1780931;80;21058;-75
2022/08/23 04:26:45;;;;;;;26.68;3.50;;;;;;;20.56;50.76;99465.30;1781077;80;21740;-75
2022/08/23 04:29:15;;;;;;;21.05;3.58;;;;;;;20.59;50.81;99468.61;1779635;80;22017;-75
2022/08/23 04:31:41;;;;;;;25.12;2.72;;;;;;;20.62;50.45;99472.84;1753091;80;22259;-74
2022/08/23 04:34:08;;;;;;;25.52;3.58;;;;;;;20.67;50.50;99473.38;1751742;81;21566;-75
2022/08/23 04:36:39;;;;;;;14.38;3.02;;;;;;;20.72;50.43;99471.20;1751601;81;21467;-76
2022/08/23 04:39:06;;;;;;;31.50;3.37;;;;;;;20.78;50.47;99470.73;1730769;81;21147;-75
2022/08/23 04:44:18;;;;;;;29.35;3.98;;;;;;;20.89;50.21;99474.38;1723232;81;21078;-75
2022/08/23 04:46:47;;;;;;;22.48;3.35;;;;;;;20.93;50.08;99475.83;1689292;84;21074;-74
2022/08/23 04:49:14;;;;;;;20.48;3.60;;;;;;;20.99;50.11;99478.03;1717786;83;21039;-75
2022/08/23 04:51:40;;;;;;;22.20;4.67;;;;;;;21.03;49.80;99476.84;1689362;84;21078;-75
2022/08/23 04:54:07;;;;;;;25.37;3.27;;;;;;;21.07;49.50;99479.62;1717546;83;21194;-76
2022/08/23 04:56:53;;;;;;;28.07;3.58;;;;;;;21.12;49.31;99478.77;1647341;85;21490;-76
2022/08/23 04:59:21;;;;;;;25.55;3.98;;;;;;;21.17;49.51;99481.59;1660011;84;21523;-76
2022/08/23 05:01:49;;;;;;;25.68;3.35;;;;;;;21.20;49.76;99484.00;1717743;83;21145;-75
2022/08/23 05:04:16;;;;;;;24.90;3.40;;;;;;;21.24;49.50;99482.30;1689596;84;21586;-75
2022/08/23 05:06:44;;;;;;;29.92;5.35;;;;;;;21.29;49.52;99479.27;1717639;83;21190;-75
2022/08/23 05:09:11;;;;;;;30.55;4.40;;;;;;;21.33;49.13;99478.03;1689433;84;21860;-75
2022/08/23 05:11:38;;;;;;;31.00;3.67;;;;;;;21.36;49.35;99485.81;1717776;83;21046;-75
2022/08/23 05:14:05;;;;;;;24.95;3.77;;;;;;;21.42;49.28;99490.69;1684722;85;21117;-75
2022/08/23 05:16:32;;;;;;;28.05;4.15;;;;;;;21.46;49.57;99493.97;1689422;84;21193;-76
2022/08/23 05:19:04;;;;;;;28.47;4.15;;;;;;;21.51;49.29;99497.16;1716832;83;21155;-75
2022/08/23 05:21:31;;;;;;;48.08;4.58;;;;;;;21.52;48.41;99497.03;1655423;85;21024;-76
2022/08/23 05:23:59;;;;;;;34.08;4.97;;;;;;;21.56;48.76;99501.65;1689424;84;21019;-75
2022/08/23 05:26:26;;;;;;;29.23;5.17;;;;;;;21.60;48.65;99500.91;1717464;83;21173;-75
2022/08/23 05:28:52;;;;;;;33.30;4.53;;;;;;;21.63;48.42;99498.83;1684779;85;21091;-75
2022/08/23 05:31:23;;;;;;;42.17;6.37;;;;;;;21.67;48.34;99502.98;1725060;81;21150;-75
2022/08/23 05:33:52;;;;;;;37.20;4.30;;;;;;;21.69;48.21;99501.02;1741912;82;21052;-75
2022/08/23 05:36:20;;;;;;;40.08;4.90;;;;;;;21.71;48.15;99505.76;1732366;82;21334;-74
2022/08/23 05:38:48;;;;;;;39.73;4.83;;;;;;;21.76;47.97;99504.05;1742187;82;21096;-75
2022/08/23 05:41:15;;;;;;;44.90;5.15;;;;;;;21.81;48.09;99510.38;1753346;81;21587;-74
2022/08/23 05:43:42;;;;;;;44.50;4.85;;;;;;;21.83;48.11;99507.92;1753294;81;21220;-75
2022/08/23 05:46:12;;;;;;;35.78;5.62;;;;;;;21.87;48.48;99504.03;1753501;81;20981;-75
2022/08/23 05:48:42;;;;;;;31.73;4.85;;;;;;;21.91;48.04;99504.63;1788232;79;21042;-75
2022/08/23 05:51:18;;;;;;;36.88;4.55;;;;;;;21.96;47.82;99501.58;1796897;79;21046;-75
2022/08/23 05:53:45;;;;;;;47.13;5.00;;;;;;;22.02;47.72;99511.77;1796653;79;21033;-76
2022/08/23 05:56:21;;;;;;;44.10;5.90;;;;;;;22.08;47.27;99508.59;1784900;80;21837;-75
2022/08/23 05:58:49;;;;;;;40.98;5.85;;;;;;;22.14;47.49;99509.91;1784481;80;21077;-75
2022/08/23 06:01:16;;;;;;;45.75;5.30;;;;;;;22.20;47.35;99518.28;1784979;80;21018;-75
2022/08/23 06:03:43;;;;;;;53.78;5.58;;;;;;;22.25;47.31;99525.45;1784674;80;20959;-75
2022/08/23 06:06:11;;;;;;;65.15;6.10;;;;;;;22.32;47.45;99518.28;1784736;79;21034;-75
2022/08/23 06:08:39;;;;;;;41.42;5.95;;;;;;;22.37;47.43;99522.77;1784507;80;21810;-75
2022/08/23 06:11:09;;;;;;;61.90;6.15;;;;;;;22.44;47.18;99529.30;1784816;80;20975;-75
2022/08/23 06:13:46;;;;;;;39.60;6.22;;;;;;;22.50;47.39;99539.53;1785107;80;21553;-75
2022/08/23 06:16:14;;;;;;;57.45;5.92;;;;;;;22.56;46.69;99536.34;1784267;80;21065;-75
2022/08/23 06:18:40;;;;;;;38.08;5.47;;;;;;;22.61;46.58;99542.16;1784974;80;21031;-74
2022/08/23 06:21:15;;;;;;;45.03;5.83;;;;;;;22.69;46.85;99540.16;1779747;80;21015;-75
2022/08/23 06:23:45;;;;;;;48.10;5.70;;;;;;;22.78;46.63;99549.27;1784264;80;21058;-75
2022/08/23 06:26:19;;;;;;;55.60;6.87;;;;;;;22.84;46.64;99542.53;1784754;80;21018;-75
2022/08/23 06:28:48;;;;;;;49.00;6.12;;;;;;;22.90;46.47;99550.06;1754048;80;20979;-76
2022/08/23 06:31:15;;;;;;;57.27;5.70;;;;;;;22.96;46.34;99550.38;1777810;80;21094;-76
2022/08/23 06:33:44;;;;;;;46.53;4.83;;;;;;;23.03;46.51;99549.84;1768480;80;21131;-76
2022/08/23 06:36:16;;;;;;;43.15;6.00;;;;;;;23.12;46.37;99556.64;1768696;81;22274;-75
2022/08/23 06:38:59;;;;;;;52.27;5.85;;;;;;;23.19;45.81;99556.95;1769895;81;21110;-75
2022/08/23 06:41:47;;;;;;;55.60;6.67;;;;;;;23.26;45.76;99559.46;1768567;80;21080;-75
2022/08/23 06:44:28;;;;;;;71.10;7.17;;;;;;;23.34;45.84;99565.02;1770730;81;21047;-75
2022/08/23 06:46:57;;;;;;;70.65;6.25;;;;;;;23.41;45.31;99566.67;1758386;80;21212;-75
2022/08/23 06:49:24;;;;;;;50.48;6.25;;;;;;;23.47;45.64;99566.62;1752799;81;21070;-75
2022/08/23 06:51:53;;;;;;;50.88;6.40;;;;;;;23.54;45.54;99566.45;1753356;81;21080;-75
2022/08/23 06:54:25;;;;;;;45.15;5.90;;;;;;;23.62;45.28;99563.95;1751569;81;21111;-75
2022/08/23 06:56:56;;;;;;;57.98;7.40;;;;;;;23.71;45.01;99575.20;1752192;81;21076;-75
2022/08/23 06:59:28;;;;;;;63.15;7.03;;;;;;;23.83;45.18;99569.77;1752535;81;21799;-75
2022/08/23 07:02:02;;;;;;;55.38;6.62;;;;;;;23.93;44.59;99574.67;1750952;81;21527;-75
2022/08/23 07:04:33;;;;;;;61.95;6.75;;;;;;;24.02;44.56;99575.17;1749551;81;21099;-75
2022/08/23 07:07:01;;;;;;;64.15;7.30;;;;;;;24.11;44.66;99579.73;1735207;81;21575;-75
2022/08/23 07:09:29;;;;;;;76.53;7.85;;;;;;;24.21;44.02;99577.55;1752732;81;21657;-75
2022/08/23 07:11:57;;;;;;;61.18;7.55;;;;;;;24.32;44.33;99580.62;1729578;81;21207;-75
2022/08/23 07:14:23;;;;;;;69.35;8.50;;;;;;;24.40;43.98;99581.61;1753069;81;21052;-75
2022/08/23 07:16:53;;;;;;;75.90;8.08;;;;;;;24.50;43.60;99580.78;1752973;81;21100;-74
2022/08/23 07:19:22;;;;;;;75.03;7.53;;;;;;;24.60;43.86;99589.73;1753323;81;21127;-75
2022/08/23 07:21:49;;;;;;;55.80;9.05;;;;;;;24.70;43.04;99582.51;1753077;81;21060;-75
2022/08/23 07:24:17;;;;;;;88.07;8.58;;;;;;;24.78;43.46;99583.99;1753231;81;21203;-75
2022/08/23 07:26:45;;;;;;;67.42;8.18;;;;;;;24.87;43.04;99591.70;1752795;81;21143;-75
2022/08/23 07:29:12;;;;;;;82.95;9.25;;;;;;;24.94;42.56;99593.32;1752914;81;21629;-74
2022/08/23 07:31:43;;;;;;;88.87;9.33;;;;;;;25.01;42.52;99593.93;1753191;81;21607;-75
2022/08/23 07:34:10;;;;;;;77.65;7.97;;;;;;;25.11;41.96;99601.16;1752891;81;21044;-75
2022/08/23 07:36:40;;;;;;;68.83;9.68;;;;;;;25.17;41.88;99593.34;1752795;81;22211;-74
2022/08/23 07:39:08;;;;;;;78.78;9.13;;;;;;;25.25;41.56;99605.23;1752783;81;21320;-75
2022/08/23 07:41:36;;;;;;;94.65;9.15;;;;;;;25.32;41.93;99601.02;1752947;81;21365;-75
2022/08/23 07:44:05;;;;;;;70.92;7.85;;;;;;;25.40;41.69;99599.75;1752929;81;21029;-75
2022/08/23 07:46:32;;;;;;;111.37;8.95;;;;;;;25.47;41.45;99602.23;1753000;81;21520;-75
2022/08/23 07:48:59;;;;;;;66.25;8.08;;;;;;;25.55;40.66;99601.00;1771711;80;21778;-75
2022/08/23 07:51:29;;;;;;;63.58;8.93;;;;;;;25.62;40.89;99607.13;1780619;80;21589;-75
2022/08/23 07:53:57;;;;;;;68.40;9.30;;;;;;;25.71;40.61;99602.22;1781955;80;22232;-75
2022/08/23 07:56:23;;;;;;;77.78;9.43;;;;;;;25.75;40.73;99603.60;1781609;80;21610;-75
2022/08/23 07:59:07;;;;;;;92.27;9.73;;;;;;;25.83;40.54;99593.44;1781793;80;20983;-75
2022/08/23 08:01:36;;;;;;;77.78;10.50;;;;;;;25.94;40.39;99602.17;1781499;80;21902;-75
2022/08/23 08:04:03;;;;;;;81.35;9.70;;;;;;;26.04;40.32;99608.90;1809720;79;21475;-76
2022/08/23 08:06:36;;;;;;;83.55;9.98;;;;;;;26.11;39.78;99606.45;1784344;80;21101;-75
2022/08/23 08:09:03;;;;;;;89.70;9.43;;;;;;;26.18;39.61;99605.34;1812680;79;21042;-76
2022/08/23 08:11:31;;;;;;;89.13;9.68;;;;;;;26.26;40.37;99598.19;1783987;80;20987;-75
2022/08/23 08:13:59;;;;;;;115.55;10.15;;;;;;;26.37;40.04;99598.96;1812502;79;21265;-75
2022/08/23 08:16:29;;;;;;;98.52;11.45;;;;;;;26.48;39.86;99602.28;1784125;80;21094;-75
2022/08/23 08:18:58;;;;;;;86.53;10.53;;;;;;;26.59;39.75;99597.14;1812271;79;21060;-76
2022/08/23 08:21:44;;;;;;;88.90;10.78;;;;;;;26.72;39.53;99597.31;1784043;80;21083;-75
2022/08/23 08:24:29;;;;;;;90.90;10.98;;;;;;;26.82;39.50;99605.66;1809521;79;21015;-76
2022/08/23 08:26:57;;;;;;;98.50;11.08;;;;;;;26.94;39.08;99598.16;1783170;80;21149;-75
2022/08/23 08:29:24;;;;;;;89.97;9.35;;;;;;;27.02;39.21;99600.92;1812500;79;20983;-75
2022/08/23 08:31:51;;;;;;;91.00;10.15;;;;;;;27.10;38.73;99608.73;1812428;78;21081;-75
2022/08/23 08:34:19;;;;;;;74.30;9.80;;;;;;;27.18;38.48;99600.69;1812640;79;21026;-76
2022/08/23 08:36:52;;;;;;;93.55;11.75;;;;;;;27.26;37.74;99610.20;1781678;80;21054;-75
2022/08/23 08:39:24;;;;;;;89.55;10.08;;;;;;;27.34;37.70;99610.80;1757580;81;21258;-75
2022/08/23 08:42:13;;;;;;;86.95;9.58;;;;;;;27.40;37.65;99600.69;1778035;79;21481;-76
2022/08/23 08:44:54;;;;;;;119.95;12.65;;;;;;;27.49;37.46;99606.50;1809835;79;21020;-76
2022/08/23 08:47:40;;;;;;;82.70;9.18;;;;;;;27.59;36.99;99610.45;1759707;81;22024;-75
2022/08/23 08:50:22;;;;;;;79.05;10.48;;;;;;;27.71;37.09;99609.66;1810036;79;21068;-74
2022/08/23 08:52:54;;;;;;;77.17;9.88;;;;;;;27.83;36.89;99612.92;1728025;81;21213;-75
2022/08/23 08:55:26;;;;;;;86.22;10.60;;;;;;;27.84;36.94;99618.66;1806676;79;21036;-75
2022/08/23 08:57:53;;;;;;;77.60;10.40;;;;;;;27.82;36.76;99616.62;1809505;79;21055;-75
2022/08/23 09:00:28;;;;;;;81.32;9.45;;;;;;;27.83;37.08;99612.92;1809875;79;20970;-76
2022/08/23 09:02:56;;;;;;;78.37;9.63;;;;;;;27.90;37.58;99614.80;1778794;79;21079;-75
2022/08/23 09:05:33;;;;;;;81.12;9.75;;;;;;;27.97;36.86;99613.67;1810080;79;21619;-74
2022/08/23 09:08:21;;;;;;;88.60;9.33;;;;;;;27.99;36.30;99615.70;1809312;79;21259;-76
2022/08/23 09:11:08;;;;;;;74.67;8.85;;;;;;;27.96;35.85;99621.47;1809925;79;20989;-75
2022/08/23 09:13:56;;;;;;;78.52;9.95;;;;;;;28.01;35.84;99615.06;1809639;79;21020;-75
2022/08/23 09:16:46;;;;;;;70.05;7.90;;;;;;;28.09;36.05;99616.93;1809597;79;21087;-75
2022/08/23 09:19:13;;;;;;;81.97;8.73;;;;;;;28.14;35.48;99622.21;1809685;79;21551;-75
2022/08/23 09:22:00;;;;;;;75.32;9.65;;;;;;;28.13;35.46;99623.20;1809383;79;21040;-76
2022/08/23 09:24:28;;;;;;;61.98;7.90;;;;;;;28.16;35.47;99633.70;1809768;79;20985;-75
2022/08/23 09:27:01;;;;;;;78.37;8.60;;;;;;;28.26;36.12;99643.52;1779748;79;21091;-75
2022/08/23 09:29:31;;;;;;;72.75;7.30;;;;;;;28.34;35.87;99635.44;1778517;79;21377;-75
2022/08/23 09:32:05;;;;;;;53.85;6.15;;;;;;;28.43;35.59;99627.69;1807095;78;21899;-75
2022/08/23 09:34:38;;;;;;;62.67;7.83;;;;;;;28.51;35.27;99627.71;1804021;79;21618;-75
2022/08/23 09:37:17;;;;;;;70.60;7.67;;;;;;;28.62;36.05;99632.50;1804127;79;21037;-75
2022/08/23 09:39:51;;;;;;;64.77;6.83;;;;;;;28.67;35.12;99632.84;1804156;79;21516;-75
2022/08/23 09:42:35;;;;;;;51.58;6.50;;;;;;;28.68;35.44;99632.67;1804102;79;21288;-75
2022/08/23 09:45:30;;;;;;;47.25;7.35;;;;;;;28.70;35.24;99626.58;1804243;78;21089;-75
2022/08/23 09:47:57;;;;;;;55.95;6.10;;;;;;;28.78;34.96;99637.94;1804011;79;21099;-75
2022/08/23 09:50:32;;;;;;;47.40;6.00;;;;;;;28.84;34.66;99622.86;1804291;79;21017;-74
2022/08/23 09:53:11;;;;;;;49.33;6.15;;;;;;;28.86;34.38;99631.66;1803870;79;21072;-75
2022/08/23 09:55:44;;;;;;;52.75;4.53;;;;;;;28.89;34.21;99629.97;1803868;79;21037;-76
2022/08/23 09:58:25;;;;;;;31.70;4.83;;;;;;;28.94;33.62;99624.05;1811433;79;22067;-75
2022/08/23 10:01:12;;;;;;;44.38;5.75;;;;;;;29.06;33.30;99627.59;1784286;80;21062;-75
2022/08/23 10:03:41;;;;;;;42.90;4.92;;;;;;;29.15;32.83;99625.75;1812535;79;21081;-75
2022/08/23 10:06:17;;;;;;;38.70;4.58;;;;;;;29.28;32.79;99622.52;1781515;80;21018;-75
2022/08/23 10:08:55;;;;;;;38.30;4.55;;;;;;;29.37;32.72;99623.35;1809003;79;21053;-75
2022/08/23 10:11:27;;;;;;;34.03;4.40;;;;;;;29.41;32.62;99624.72;1813120;79;21465;-76
2022/08/23 10:13:54;;;;;;;38.98;4.47;;;;;;;29.45;31.52;99622.85;1784361;80;21567;-75
2022/08/23 10:16:49;;;;;;;32.48;4.50;;;;;;;29.46;31.52;99632.66;1782004;79;21089;-75
2022/08/23 10:19:28;;;;;;;31.23;4.95;;;;;;;29.42;31.35;99631.81;1784357;80;21003;-75
2022/08/23 10:22:10;;;;;;;29.40;3.90;;;;;;;29.32;31.32;99628.44;1812957;79;21029;-75
2022/08/23 10:24:53;;;;;;;21.93;4.42;;;;;;;29.22;31.38;99626.78;1812567;78;21055;-76
2022/08/23 10:31:11;;;;;;;30.88;4.00;;;;;;;29.14;32.41;99630.81;1784059;80;21336;-75
2022/08/23 10:34:22;;;;;;;30.97;3.90;;;;;;;29.09;32.58;99635.38;1805564;78;20980;-75
2022/08/23 10:37:16;;;;;;;23.40;3.45;;;;;;;29.02;32.32;99641.67;1802945;79;21043;-75
2022/08/23 10:39:54;;;;;;;29.63;3.50;;;;;;;28.96;31.94;99645.04;1737251;79;21193;-75
2022/08/23 10:43:12;;;;;;;13.25;2.80;;;;;;;28.91;31.22;99651.80;1802981;79;21526;-74
2022/08/23 10:45:42;;;;;;;22.77;3.10;;;;;;;28.85;31.06;99643.01;1771870;79;21229;-75
2022/08/23 10:48:28;;;;;;;24.72;3.37;;;;;;;28.82;31.32;99639.28;1800408;79;21106;-76
2022/08/23 10:51:22;;;;;;;18.40;2.50;;;;;;;28.84;31.81;99638.59;1772457;79;21078;-75
2022/08/23 10:54:05;;;;;;;26.25;2.65;;;;;;;28.87;31.35;99632.02;1803079;79;21960;-75
2022/08/23 10:56:33;;;;;;;18.48;2.58;;;;;;;28.83;29.88;99638.28;1803241;79;21597;-76
2022/08/23 10:59:19;;;;;;;20.70;3.05;;;;;;;28.79;30.67;99637.42;1802873;79;21067;-75
2022/08/23 11:02:18;;;;;;;17.02;2.50;;;;;;;28.77;30.62;99633.52;1803019;79;21653;-75
2022/08/23 11:04:54;;;;;;;14.75;2.10;;;;;;;28.79;30.58;99630.65;1771439;79;21043;-75
2022/08/23 11:07:40;;;;;;;15.68;2.85;;;;;;;28.79;30.36;99638.77;1802973;79;21098;-75
2022/08/23 11:10:17;;;;;;;25.92;2.15;;;;;;;28.76;29.88;99637.75;1802876;79;21481;-75
2022/08/23 11:12:55;;;;;;;25.80;3.17;;;;;;;28.71;28.72;99638.24;1802765;79;21091;-75
2022/08/23 11:15:50;;;;;;;13.58;2.70;;;;;;;28.63;29.63;99645.00;1802732;79;21023;-74
2022/08/23 11:18:37;;;;;;;;;;;;;;;28.57;30.10;99651.10;1805870;79;21050;-75
2022/08/23 11:21:11;;;;;;;14.00;2.15;;;;;;;28.52;29.95;99644.27;1802638;79;21768;-75
2022/08/23 11:23:46;;;;;;;16.50;2.55;;;;;;;28.50;30.21;99645.47;1772310;79;21655;-75
2022/08/23 11:26:40;;;;;;;12.78;2.25;;;;;;;28.48;30.04;99636.16;1802854;79;21578;-75
2022/08/23 11:29:26;;;;;;;19.90;2.33;;;;;;;28.51;30.82;99636.31;1803131;79;21113;-75
2022/08/23 11:32:34;;;;;;;12.68;2.15;;;;;;;28.53;30.37;99635.16;1800333;79;20976;-76
2022/08/23 11:35:34;;;;;;;20.65;2.45;;;;;;;28.54;29.54;99639.53;1688228;82;21358;-75
2022/08/23 11:38:01;;;;;;;9.85;2.00;;;;;;;28.54;29.56;99637.34;1791513;79;21016;-75
2022/08/23 11:40:50;;;;;;;14.05;2.05;;;;;;;28.55;29.82;99636.34;1791942;79;21016;-75
2022/08/23 11:43:30;;;;;;;10.13;2.08;;;;;;;28.56;30.06;99638.56;1784499;80;21496;-75
2022/08/23 11:46:29;;;;;;;12.55;2.30;;;;;;;28.57;30.84;99632.16;1792205;79;21048;-75
2022/08/23 11:49:27;;;;;;;12.43;2.00;;;;;;;28.58;30.25;99632.47;1732719;79;21674;-76
2022/08/23 11:52:01;;;;;;;6.65;1.67;;;;;;;28.58;30.49;99630.63;1773257;80;21459;-75
2022/08/23 11:55:00;;;;;;;13.70;1.85;;;;;;;28.58;30.16;99629.77;1803075;79;21094;-75
2022/08/23 11:57:58;;;;;;;9.80;2.08;;;;;;;28.56;30.12;99626.38;1801255;79;21035;-75
2022/08/23 12:00:58;;;;;;;10.95;1.85;;;;;;;28.59;29.98;99626.05;1803184;79;21019;-75
2022/08/23 12:03:34;;;;;;;9.85;1.72;;;;;;;28.73;30.72;99624.02;1797003;79;21927;-76
2022/08/23 12:06:12;;;;;;;9.73;1.65;;;;;;;28.97;30.02;99621.02;1806194;78;21043;-75